Time;durP1;ratioP1;P1;durP2;ratioP2;P2;SDS_P1;SDS_P2;PMS_P1;PMS_P2;Temp;Humidity;BMP_temperature;BMP_pressure;BME280_temperature;BME280_humidity;BME280_pressure;Samples;Min_cycle;Max_cycle;Signal;HPM_P1;HPM_P2
2023/05/19 00:01:29;;;;;;;5.57;3.63;;;14.80;67.20;;;17.50;47.62;102743.13;5037302;28;20766;-67
2023/05/19 00:04:01;;;;;;;6.60;3.80;;;14.80;67.10;;;17.48;47.81;102743.31;5048288;28;20202;-67
2023/05/19 00:06:31;;;;;;;5.83;4.13;;;14.80;67.20;;;17.44;47.64;102739.34;5056803;28;20496;-67
2023/05/19 00:09:03;;;;;;;7.63;3.97;;;14.80;66.80;;;17.40;47.46;102740.66;5049547;28;20209;-67
2023/05/19 00:11:30;;;;;;;9.57;4.33;;;14.70;66.80;;;17.36;47.38;102736.69;5055671;28;20195;-67
2023/05/19 00:13:59;;;;;;;8.53;4.20;;;14.70;66.40;;;17.27;47.01;102737.72;5056284;28;20214;-68
2023/05/19 00:16:29;;;;;;;5.30;3.63;;;14.60;66.20;;;17.17;47.15;102744.19;5056736;28;20190;-68
2023/05/19 00:19:01;;;;;;;6.83;3.43;;;14.50;66.10;;;17.05;47.81;102742.88;5057145;28;20185;-66
2023/05/19 00:21:30;;;;;;;9.30;3.90;;;14.40;66.80;;;16.95;48.04;102743.06;5056224;28;20569;-67
2023/05/19 00:23:57;;;;;;;8.17;3.83;;;14.20;67.80;;;16.85;48.38;102743.22;5056086;28;20190;-68
2023/05/19 00:26:26;;;;;;;6.73;3.70;;;14.10;68.40;;;16.81;48.87;102743.72;5056427;28;20193;-68
2023/05/19 00:28:53;;;;;;;7.03;4.13;;;14.10;68.90;;;16.78;48.73;102741.41;5055931;28;20611;-68
2023/05/19 00:31:20;;;;;;;7.33;3.80;;;14.10;69.00;;;16.77;49.04;102742.41;5056698;28;20662;-68
2023/05/19 00:33:47;;;;;;;7.37;5.07;;;14.00;69.10;;;16.76;48.94;102744.22;5055928;28;20204;-68
2023/05/19 00:36:14;;;;;;;6.97;4.33;;;14.00;68.90;;;16.72;49.08;102742.06;5056293;28;20193;-68
2023/05/19 00:38:41;;;;;;;6.67;3.90;;;14.00;69.40;;;16.69;49.58;102737.06;5056035;28;20269;-68
2023/05/19 00:41:08;;;;;;;5.43;3.80;;;14.00;69.50;;;16.70;49.44;102736.91;5056069;28;20728;-69
2023/05/19 00:43:36;;;;;;;8.40;4.60;;;14.00;69.40;;;16.72;49.19;102731.41;5054592;28;20202;-70
2023/05/19 00:46:03;;;;;;;7.30;4.37;;;14.00;69.30;;;16.73;48.95;102738.41;5054661;28;20237;-68
2023/05/19 00:48:30;;;;;;;6.67;3.80;;;14.00;69.10;;;16.67;48.63;102744.38;5055033;28;20189;-68
2023/05/19 00:51:03;;;;;;;7.83;5.27;;;13.90;68.70;;;16.56;48.34;102736.72;5054834;28;20196;-68
2023/05/19 00:53:33;;;;;;;6.87;3.63;;;13.90;69.10;;;16.45;48.78;102739.69;5054931;28;20171;-68
2023/05/19 00:56:01;;;;;;;6.13;3.93;;;13.70;69.60;;;16.39;49.39;102738.50;5054826;28;20209;-68
2023/05/19 00:58:31;;;;;;;5.63;4.13;;;13.70;70.10;;;16.38;49.93;102731.50;5054686;28;20558;-68
2023/05/19 01:01:05;;;;;;;5.47;3.97;;;13.70;70.60;;;16.40;49.94;102731.38;5054107;28;20595;-68
2023/05/19 01:03:34;;;;;;;7.57;3.93;;;13.70;70.60;;;16.41;49.79;102733.00;5049387;28;20217;-68
2023/05/19 01:06:06;;;;;;;8.03;4.43;;;13.70;70.70;;;16.43;49.99;102733.66;5034593;28;20298;-68
2023/05/19 01:08:35;;;;;;;6.70;5.63;;;13.70;70.60;;;16.46;49.74;102736.00;5042384;28;20281;-68
2023/05/19 01:11:03;;;;;;;5.77;4.87;;;13.70;70.50;;;16.50;49.57;102737.34;5054382;28;20193;-68
2023/05/19 01:13:30;;;;;;;6.83;4.60;;;13.80;70.30;;;16.53;49.55;102737.06;5054281;28;20243;-68
2023/05/19 01:16:06;;;;;;;4.73;4.13;;;13.80;70.00;;;16.55;49.34;102735.06;5054262;28;20781;-68
2023/05/19 01:18:45;;;;;;;10.03;4.70;;;13.80;69.70;;;16.54;49.53;102730.75;5054069;28;20189;-68
2023/05/19 01:22:14;;;;;;;7.90;4.43;;;13.80;69.60;;;16.49;49.13;102736.53;5054621;28;20197;-68
2023/05/19 01:25:16;;;;;;;6.03;4.27;;;13.80;69.30;;;16.45;49.18;102739.69;5053955;28;20283;-68
2023/05/19 01:28:20;;;;;;;4.53;3.77;;;13.80;69.20;;;16.40;49.37;102742.00;5034188;28;20224;-69
2023/05/19 01:30:53;;;;;;;4.87;4.23;;;13.80;68.90;;;16.43;49.10;102739.00;5016048;28;20210;-68
2023/05/19 01:33:23;;;;;;;7.80;4.07;;;13.80;68.90;;;16.46;49.15;102736.84;5034050;28;20209;-68
2023/05/19 01:35:52;;;;;;;7.43;4.20;;;13.80;69.20;;;16.48;49.12;102734.00;5033947;28;20213;-68
2023/05/19 01:38:21;;;;;;;5.60;4.13;;;13.80;69.10;;;16.49;48.97;102735.69;5033915;28;20274;-68
2023/05/19 01:40:50;;;;;;;5.43;4.43;;;13.80;69.00;;;16.50;48.97;102721.38;4999874;28;980681;-69
2023/05/19 01:43:22;;;;;;;5.00;4.07;;;13.80;68.60;;;16.52;48.60;102738.06;5034522;28;20555;-68
2023/05/19 01:45:52;;;;;;;4.23;3.83;;;13.80;68.40;;;16.50;48.64;102732.03;5034843;28;20214;-68
2023/05/19 01:48:20;;;;;;;6.67;4.13;;;13.80;68.10;;;16.47;48.46;102732.38;5034866;28;20194;-68
2023/05/19 01:50:47;;;;;;;5.97;4.50;;;13.80;68.20;;;16.43;48.75;102726.53;5034802;28;20224;-68
2023/05/19 01:53:14;;;;;;;5.50;4.07;;;13.80;68.20;;;16.42;48.25;102729.38;5034511;28;20185;-68
2023/05/19 01:55:46;;;;;;;4.50;3.87;;;13.70;67.80;;;16.39;48.40;102727.03;5034565;28;20241;-68
2023/05/19 01:58:21;;;;;;;6.43;4.17;;;13.70;67.90;;;16.36;48.47;102727.34;5034824;28;20178;-68
2023/05/19 02:01:01;;;;;;;8.23;4.37;;;13.70;68.30;;;16.36;48.23;102725.53;5047617;28;20272;-68
2023/05/19 02:04:05;;;;;;;6.20;4.77;;;13.70;68.10;;;16.22;47.96;102729.66;5054126;28;20739;-68
2023/05/19 02:06:43;;;;;;;4.70;4.03;;;13.60;67.50;;;16.18;48.63;102728.31;5054476;28;20194;-68
2023/05/19 02:09:15;;;;;;;9.10;4.13;;;13.50;68.20;;;16.14;48.86;102732.28;5054682;28;20268;-68
2023/05/19 02:11:53;;;;;;;5.87;4.13;;;13.50;68.60;;;16.09;48.48;102729.28;5053523;28;20194;-66
2023/05/19 02:14:40;;;;;;;8.67;4.33;;;13.50;68.40;;;16.07;48.58;102736.56;5054193;28;20292;-68
2023/05/19 02:17:11;;;;;;;7.53;4.03;;;13.40;68.30;;;16.09;48.78;102737.25;5054312;28;20268;-68
2023/05/19 02:19:39;;;;;;;8.70;4.30;;;13.40;68.50;;;16.10;48.61;102730.94;5054321;28;20200;-68
2023/05/19 02:22:06;;;;;;;8.13;4.17;;;13.40;68.30;;;16.09;48.62;102737.25;5048093;28;20253;-68
2023/05/19 02:24:33;;;;;;;6.13;5.23;;;13.40;68.20;;;16.06;48.65;102742.06;5035097;28;20225;-67
2023/05/19 02:27:00;;;;;;;5.20;4.60;;;13.40;68.00;;;15.98;48.30;102737.53;5053799;28;20213;-68
2023/05/19 02:29:27;;;;;;;5.60;4.70;;;13.30;67.80;;;15.89;48.45;102733.19;5053463;28;20190;-68
2023/05/19 02:31:54;;;;;;;13.53;5.10;;;13.20;67.70;;;15.80;49.03;102734.16;5053161;28;20546;-67
2023/05/19 02:34:22;;;;;;;6.00;4.30;;;13.10;68.30;;;15.80;49.02;102733.31;5053867;28;20229;-68
2023/05/19 02:36:49;;;;;;;6.00;4.23;;;13.10;68.90;;;15.80;48.69;102726.19;5054383;28;20194;-67
2023/05/19 02:39:16;;;;;;;6.60;4.37;;;13.10;68.20;;;15.77;48.59;102728.31;5054196;28;20192;-67
2023/05/19 02:41:43;;;;;;;4.67;3.93;;;13.00;68.00;;;15.73;48.82;102729.66;5054166;28;20658;-67
2023/05/19 02:44:10;;;;;;;3.90;3.50;;;13.00;68.50;;;15.71;48.88;102734.28;5054016;28;20214;-67
2023/05/19 02:46:37;;;;;;;5.63;4.67;;;13.00;68.90;;;15.71;49.09;102729.81;5053955;28;20186;-68
2023/05/19 02:49:04;;;;;;;6.47;3.80;;;13.00;68.70;;;15.71;48.91;102726.31;5054223;28;20189;-68
2023/05/19 02:51:33;;;;;;;4.87;4.20;;;13.00;68.70;;;15.72;49.09;102723.50;5053926;28;20218;-67
2023/05/19 02:54:00;;;;;;;4.73;4.13;;;13.00;68.80;;;15.74;48.78;102721.50;5053455;28;20186;-67
2023/05/19 02:56:27;;;;;;;19.17;12.50;;;13.00;68.50;;;15.75;48.39;102722.34;5053778;28;20198;-67
2023/05/19 02:58:54;;;;;;;13.47;8.93;;;13.00;67.70;;;15.68;47.85;102716.84;5053110;28;20198;-67
2023/05/19 03:01:21;;;;;;;8.57;6.37;;;12.90;66.90;;;15.56;47.76;102715.47;5053282;28;20246;-68
2023/05/19 03:03:49;;;;;;;6.23;4.60;;;12.80;66.80;;;15.40;47.63;102724.13;5052990;28;20561;-67
2023/05/19 03:06:16;;;;;;;7.67;5.57;;;12.70;66.70;;;15.25;48.46;102727.50;5053411;28;20248;-67
2023/05/19 03:08:45;;;;;;;8.27;7.17;;;12.50;67.80;;;15.19;49.10;102728.97;5053510;28;20194;-67
2023/05/19 03:11:12;;;;;;;7.57;5.87;;;12.50;68.80;;;15.17;48.90;102719.50;5053586;28;20213;-67
2023/05/19 03:13:39;;;;;;;7.70;5.50;;;12.40;68.50;;;15.18;48.90;102718.50;5053289;28;20225;-67
2023/05/19 03:16:06;;;;;;;8.97;5.13;;;12.50;68.30;;;15.16;49.01;102720.50;5053598;28;20221;-67
2023/05/19 03:18:34;;;;;;;5.77;5.27;;;12.40;68.40;;;15.16;48.90;102717.84;5053322;28;20252;-67
2023/05/19 03:21:02;;;;;;;7.10;6.07;;;12.40;68.40;;;15.15;48.95;102722.31;5053395;28;20655;-67
2023/05/19 03:23:29;;;;;;;8.63;6.97;;;12.40;68.30;;;15.16;48.99;102712.53;5052705;28;20574;-67
2023/05/19 03:25:57;;;;;;;8.73;6.03;;;12.40;68.70;;;15.21;48.88;102719.06;5052944;28;20217;-67
2023/05/19 03:28:26;;;;;;;8.57;6.47;;;12.50;68.30;;;15.25;48.74;102712.44;5053263;28;20264;-67
2023/05/19 03:30:53;;;;;;;5.90;4.83;;;12.50;68.20;;;15.30;48.68;102714.63;5053099;28;20248;-68
2023/05/19 03:33:20;;;;;;;10.43;5.43;;;12.50;67.90;;;15.34;48.38;102715.97;5052720;28;20213;-67
2023/05/19 03:35:47;;;;;;;6.17;5.53;;;12.60;67.50;;;15.35;47.81;102717.63;5052915;28;20217;-68
2023/05/19 03:38:14;;;;;;;5.60;4.80;;;12.60;67.10;;;15.32;48.50;102717.94;5052988;28;20268;-67
2023/05/19 03:40:41;;;;;;;8.20;5.10;;;12.60;67.50;;;15.32;47.96;102717.94;5052644;28;20194;-68
2023/05/19 03:43:09;;;;;;;7.40;4.63;;;12.60;67.50;;;15.34;48.14;102721.25;5052135;28;20308;-68
2023/05/19 03:45:36;;;;;;;8.93;5.23;;;12.60;67.20;;;15.34;48.05;102723.91;5052774;28;20236;-68
2023/05/19 03:48:04;;;;;;;6.60;5.00;;;12.60;67.10;;;15.32;47.85;102728.56;5052557;28;20194;-68
2023/05/19 03:50:32;;;;;;;5.40;4.87;;;12.60;67.10;;;15.33;48.18;102727.59;5052767;28;20557;-68
2023/05/19 03:52:59;;;;;;;6.13;4.73;;;12.60;67.50;;;15.36;47.93;102719.28;5052426;28;20252;-71
2023/05/19 03:55:28;;;;;;;8.47;5.13;;;12.60;67.10;;;15.41;47.90;102722.31;5052710;28;20585;-67
2023/05/19 03:57:56;;;;;;;7.70;4.67;;;12.70;66.70;;;15.43;47.61;102717.66;5052591;28;20216;-68
2023/05/19 04:00:24;;;;;;;8.03;4.60;;;12.70;66.50;;;15.46;47.59;102725.34;5052640;28;20726;-67
2023/05/19 04:02:51;;;;;;;6.40;4.50;;;12.70;66.50;;;15.49;47.22;102717.91;5052679;28;20285;-67
2023/05/19 04:05:18;;;;;;;9.33;5.17;;;12.70;65.80;;;15.49;47.01;102725.03;5052946;28;20715;-68
2023/05/19 04:07:45;;;;;;;5.87;4.50;;;12.70;65.70;;;15.48;47.21;102726.03;5052419;28;20252;-67
2023/05/19 04:10:12;;;;;;;6.77;4.93;;;12.70;66.20;;;15.49;47.23;102725.03;5053036;28;20604;-68
2023/05/19 04:12:40;;;;;;;5.67;4.80;;;12.70;67.00;;;15.50;47.14;102732.00;5052896;28;20186;-67
2023/05/19 04:15:10;;;;;;;5.93;4.60;;;12.70;66.20;;;15.51;46.51;102729.22;5052277;28;20272;-68
2023/05/19 04:17:39;;;;;;;8.33;4.93;;;12.70;65.30;;;15.46;46.72;102731.50;5067739;28;20186;-68
2023/05/19 04:20:07;;;;;;;6.57;4.57;;;12.60;65.40;;;15.41;46.91;102727.59;5052373;28;20516;-68
2023/05/19 04:22:34;;;;;;;5.97;4.00;;;12.60;65.80;;;15.39;47.22;102729.59;5052700;28;20197;-68
2023/05/19 04:25:02;;;;;;;5.77;4.63;;;12.60;66.10;;;15.41;47.02;102728.44;5051866;28;20245;-68
2023/05/19 04:27:30;;;;;;;9.87;5.60;;;12.60;65.90;;;15.43;46.79;102729.13;5052608;28;20288;-68
2023/05/19 04:29:58;;;;;;;5.50;4.57;;;12.60;65.90;;;15.45;47.10;102731.66;5061900;28;20213;-68
2023/05/19 04:32:25;;;;;;;5.50;4.50;;;12.60;65.90;;;15.46;46.73;102730.66;5059767;28;20190;-67
2023/05/19 04:34:53;;;;;;;8.00;5.23;;;12.60;65.90;;;15.47;46.99;102732.34;5054750;28;20218;-68
2023/05/19 04:37:21;;;;;;;7.13;4.90;;;12.70;66.00;;;15.50;46.77;102732.00;5056276;28;20201;-67
2023/05/19 04:39:48;;;;;;;7.10;4.63;;;12.70;65.80;;;15.51;46.62;102725.72;5055992;28;20610;-68
2023/05/19 04:42:18;;;;;;;8.27;4.63;;;12.70;65.50;;;15.52;46.80;102725.53;5055911;28;20215;-68
2023/05/19 04:44:45;;;;;;;5.07;4.07;;;12.70;65.30;;;15.54;46.61;102722.75;5055956;28;20213;-67
2023/05/19 04:47:13;;;;;;;7.03;4.07;;;12.70;65.20;;;15.55;46.64;102719.09;5056220;28;20214;-68
2023/05/19 04:49:40;;;;;;;8.53;4.67;;;12.70;65.10;;;15.54;46.46;102728.06;5055702;28;20554;-68
2023/05/19 04:52:10;;;;;;;5.63;4.37;;;12.70;64.40;;;15.48;46.44;102726.03;5056193;28;20725;-68
2023/05/19 04:54:38;;;;;;;6.17;4.20;;;12.70;64.90;;;15.47;46.67;102727.03;5055574;28;20444;-68
2023/05/19 04:57:05;;;;;;;8.13;4.77;;;12.70;65.50;;;15.46;46.97;102720.88;5055783;28;20273;-68
2023/05/19 04:59:32;;;;;;;6.47;4.90;;;12.70;65.80;;;15.48;46.57;102731.34;5055726;28;20193;-68
2023/05/19 05:02:00;;;;;;;6.47;4.20;;;12.70;64.90;;;15.46;46.64;102731.50;5055663;28;20279;-68
2023/05/19 05:04:27;;;;;;;6.87;4.40;;;12.70;65.00;;;15.47;46.72;102735.84;5055134;28;20221;-68
2023/05/19 05:06:54;;;;;;;6.43;4.10;;;12.70;65.20;;;15.46;46.67;102741.28;5054600;28;20186;-68
2023/05/19 05:09:22;;;;;;;5.97;4.17;;;12.60;65.10;;;15.46;46.71;102730.66;5055332;28;20218;-67
2023/05/19 05:11:50;;;;;;;7.03;4.33;;;12.60;65.30;;;15.46;46.69;102738.63;5055030;28;20284;-68
2023/05/19 05:14:18;;;;;;;6.00;4.47;;;12.60;65.60;;;15.47;46.89;102733.19;5054509;28;20722;-67
2023/05/19 05:16:46;;;;;;;6.73;4.80;;;12.60;65.90;;;15.52;47.14;102738.00;5055358;28;20194;-67
2023/05/19 05:19:14;;;;;;;8.87;5.27;;;12.70;66.00;;;15.58;46.66;102737.38;5055483;28;20190;-67
2023/05/19 05:21:42;;;;;;;6.80;4.53;;;12.80;65.60;;;15.63;46.40;102748.34;5055277;28;20201;-67
2023/05/19 05:24:11;;;;;;;7.10;4.60;;;12.80;65.00;;;15.65;46.47;102733.09;5054603;28;20213;-67
2023/05/19 05:26:40;;;;;;;5.97;4.60;;;12.80;64.90;;;15.68;46.10;102739.91;5054984;28;20208;-66
2023/05/19 05:29:08;;;;;;;5.20;4.10;;;12.80;65.10;;;15.70;46.23;102744.06;5054794;28;20205;-66
2023/05/19 05:31:36;;;;;;;7.03;5.87;;;12.80;65.00;;;15.73;46.31;102743.75;5054774;28;20651;-67
2023/05/19 05:34:03;;;;;;;8.50;5.20;;;12.90;65.00;;;15.75;45.87;102741.78;5054577;28;20229;-68
2023/05/19 05:36:30;;;;;;;6.60;5.33;;;12.80;64.70;;;15.74;45.90;102739.25;5054636;28;20190;-68
2023/05/19 05:38:58;;;;;;;6.80;5.27;;;12.80;64.90;;;15.71;46.22;102732.47;5054798;28;20618;-68
2023/05/19 05:41:26;;;;;;;7.90;5.00;;;12.80;64.90;;;15.70;46.19;102733.44;5054685;28;20337;-68
2023/05/19 05:43:54;;;;;;;6.50;4.97;;;12.80;65.10;;;15.66;46.16;102734.75;5054396;28;20213;-68
2023/05/19 05:46:21;;;;;;;8.87;5.17;;;12.70;65.30;;;15.66;46.68;102737.41;5053349;28;20217;-68
2023/05/19 05:48:49;;;;;;;5.43;4.37;;;12.70;66.00;;;15.72;46.98;102720.84;5054092;28;20276;-68
2023/05/19 05:51:19;;;;;;;7.33;5.20;;;12.80;66.40;;;15.83;46.80;102730.38;5052772;28;20234;-67
2023/05/19 05:53:52;;;;;;;10.27;6.17;;;12.90;66.20;;;15.95;46.43;102731.75;5053971;28;20175;-68
2023/05/19 05:56:20;;;;;;;7.90;4.97;;;13.00;66.00;;;16.07;46.05;102733.91;5054244;28;20206;-68
2023/05/19 05:58:48;;;;;;;10.47;9.43;;;13.10;65.50;;;16.17;45.94;102737.28;5054218;28;20224;-68
2023/05/19 06:01:16;;;;;;;10.13;5.87;;;13.20;64.90;;;16.27;45.82;102731.81;5054160;28;20194;-68
2023/05/19 06:03:43;;;;;;;7.33;5.23;;;13.30;64.90;;;16.37;45.57;102734.34;5054280;28;20213;-67
2023/05/19 06:06:12;;;;;;;6.87;4.60;;;13.40;64.50;;;16.45;45.46;102743.16;5053959;28;20198;-67
2023/05/19 06:08:39;;;;;;;6.13;4.33;;;13.50;64.20;;;16.49;44.87;102736.53;5054082;28;20281;-67
2023/05/19 06:11:07;;;;;;;5.63;4.40;;;13.50;63.60;;;16.51;44.97;102734.56;5054121;28;20197;-67
2023/05/19 06:13:35;;;;;;;6.57;4.33;;;13.60;63.50;;;16.55;44.98;102732.41;5053559;28;20182;-67
2023/05/19 06:16:02;;;;;;;7.57;4.33;;;13.60;63.30;;;16.56;44.70;102731.41;5053989;28;20597;-67
2023/05/19 06:18:31;;;;;;;8.17;5.07;;;13.70;63.10;;;16.57;44.73;102739.22;5053522;28;20237;-69
2023/05/19 06:20:58;;;;;;;7.10;4.90;;;13.70;62.90;;;16.56;44.87;102726.94;5037374;28;20282;-67
2023/05/19 06:23:27;;;;;;;8.93;4.70;;;13.70;62.80;;;16.63;44.56;102733.25;5033426;28;20217;-68
2023/05/19 06:25:55;;;;;;;10.77;6.43;;;13.70;63.00;;;16.71;44.76;102730.59;5045575;28;20643;-67
2023/05/19 06:28:22;;;;;;;8.20;5.00;;;13.80;63.00;;;16.79;44.72;102727.94;5053881;28;20197;-68
2023/05/19 06:30:49;;;;;;;6.00;4.60;;;13.80;63.00;;;16.89;44.46;102727.78;5053841;28;20190;-68
2023/05/19 06:33:16;;;;;;;7.73;4.90;;;13.90;63.00;;;16.97;44.27;102730.44;5053930;28;20252;-69
2023/05/19 06:35:44;;;;;;;6.87;4.63;;;14.00;63.00;;;17.08;44.21;102727.44;5053773;28;20213;-68
2023/05/19 06:38:11;;;;;;;6.73;4.87;;;14.00;62.90;;;17.21;44.04;102727.72;5054045;28;20226;-68
2023/05/19 06:40:39;;;;;;;9.63;4.80;;;14.20;62.90;;;17.35;43.75;102724.38;5051215;28;20202;-69
2023/05/19 06:43:06;;;;;;;7.00;4.57;;;14.30;62.60;;;17.49;43.56;102721.03;5053260;28;20285;-68
2023/05/19 06:45:33;;;;;;;6.17;3.83;;;14.40;62.50;;;17.66;43.39;102726.34;5054253;28;20296;-69
2023/05/19 06:48:00;;;;;;;5.97;3.97;;;14.60;62.20;;;17.79;43.05;102722.09;5053956;28;20627;-68
2023/05/19 06:50:27;;;;;;;7.50;4.10;;;14.70;61.70;;;17.92;42.97;102726.88;5053900;28;20190;-69
2023/05/19 06:52:57;;;;;;;7.13;3.53;;;14.80;61.50;;;18.03;42.62;102723.81;5053367;28;20251;-68
2023/05/19 06:55:24;;;;;;;5.83;3.50;;;14.90;60.90;;;18.12;42.16;102720.94;5053824;28;20212;-68
2023/05/19 06:57:51;;;;;;;8.10;3.80;;;15.00;60.40;;;18.20;42.01;102726.25;5052880;28;20306;-68
2023/05/19 07:00:19;;;;;;;6.13;3.30;;;15.10;59.90;;;18.25;41.86;102731.88;5053299;28;20272;-68
2023/05/19 07:02:56;;;;;;;8.43;3.80;;;15.20;59.80;;;18.34;41.88;102732.66;5053321;28;20189;-69
2023/05/19 07:05:23;;;;;;;6.43;3.80;;;15.30;59.80;;;18.46;41.47;102720.59;5052825;28;20228;-69
2023/05/19 07:07:50;;;;;;;9.17;4.53;;;15.40;59.50;;;18.53;41.40;102732.22;5048417;28;20293;-68
2023/05/19 07:10:20;;;;;;;7.17;4.23;;;15.50;59.20;;;18.60;41.14;102738.50;5048664;28;20277;-69
2023/05/19 07:12:47;;;;;;;5.70;3.30;;;15.50;59.10;;;18.66;41.07;102729.78;5052702;28;20232;-68
2023/05/19 07:15:14;;;;;;;7.60;3.87;;;15.60;58.60;;;18.75;41.02;102734.06;5052879;28;20209;-69
2023/05/19 07:17:41;;;;;;;5.13;4.00;;;15.70;58.80;;;18.84;40.82;102734.81;5051610;28;20243;-68
2023/05/19 07:20:10;;;;;;;7.67;3.93;;;15.80;58.70;;;18.98;40.43;102728.69;5052426;28;20182;-68
2023/05/19 07:22:38;;;;;;;6.30;3.77;;;15.80;58.20;;;19.09;40.39;102728.25;5049416;28;20194;-69
2023/05/19 07:25:06;;;;;;;10.33;5.27;;;16.00;58.10;;;19.20;40.06;102729.66;5057038;28;20300;-68
2023/05/19 07:27:35;;;;;;;9.37;4.80;;;16.10;58.00;;;19.32;40.23;102725.53;5037884;28;20195;-68
2023/05/19 07:30:03;;;;;;;10.70;4.03;;;16.20;58.00;;;19.39;39.85;102729.16;5046220;28;20281;-68
2023/05/19 07:32:30;;;;;;;4.77;3.30;;;16.30;57.40;;;19.48;39.75;102720.03;5035282;28;20214;-69
2023/05/19 07:34:57;;;;;;;7.97;3.77;;;16.40;57.20;;;19.55;39.43;102724.47;5050765;28;20230;-69
2023/05/19 07:37:25;;;;;;;4.40;3.10;;;16.50;57.00;;;19.63;39.52;102715.53;5052864;28;20194;-69
2023/05/19 07:39:52;;;;;;;10.67;3.10;;;16.60;56.90;;;19.70;39.34;102719.13;5053259;28;20728;-69
2023/05/19 07:42:19;;;;;;;5.67;3.30;;;16.70;56.70;;;19.76;39.13;102723.69;5052738;28;20357;-68
2023/05/19 07:44:47;;;;;;;6.00;3.37;;;16.80;56.40;;;19.85;39.11;102719.91;5052692;28;20249;-68
2023/05/19 07:47:14;;;;;;;6.30;3.30;;;16.80;56.20;;;19.93;38.65;102717.13;5054763;28;20190;-68
2023/05/19 07:49:41;;;;;;;4.53;3.30;;;16.90;56.10;;;20.04;38.92;102719.31;5052536;28;20194;-69
2023/05/19 07:52:08;;;;;;;8.53;3.80;;;17.00;56.10;;;20.13;38.42;102728.88;5039592;28;20273;-69
2023/05/19 07:54:35;;;;;;;4.70;3.40;;;17.10;55.70;;;20.24;38.30;102723.09;5033872;28;20298;-70
2023/05/19 07:57:02;;;;;;;6.80;3.50;;;17.20;55.60;;;20.48;38.21;102721.06;5034346;28;20269;-69
2023/05/19 07:59:30;;;;;;;6.03;3.10;;;17.30;55.70;;;21.19;37.55;102720.88;5051073;28;20221;-69
2023/05/19 08:01:58;;;;;;;8.37;3.17;;;17.50;56.20;;;22.44;36.05;102711.53;5052021;28;20272;-69
2023/05/19 08:04:26;;;;;;;5.70;3.10;;;17.80;56.20;;;23.60;34.02;102710.88;5038220;28;20219;-69
2023/05/19 08:06:53;;;;;;;4.23;2.63;;;18.50;54.60;;;24.91;32.72;102702.03;5032296;28;20187;-68
2023/05/19 08:09:21;;;;;;;4.83;2.83;;;19.20;54.60;;;26.35;30.66;102711.13;5046494;28;20202;-69
2023/05/19 08:11:48;;;;;;;4.70;2.93;;;20.00;54.30;;;27.48;29.32;102709.00;5054050;28;20190;-69
2023/05/19 08:14:15;;;;;;;4.17;3.30;;;20.80;52.10;;;28.53;27.82;102709.38;5040471;28;20599;-69
2023/05/19 08:16:44;;;;;;;4.20;2.87;;;21.70;49.60;;;29.52;26.66;102703.84;5056364;28;20272;-69
2023/05/19 08:19:13;;;;;;;8.00;3.20;;;22.50;47.30;;;30.41;25.61;102701.59;5056258;28;20614;-70
2023/05/19 08:21:41;;;;;;;4.43;3.30;;;23.40;46.60;;;31.11;23.38;102695.06;5043143;28;20210;-68
2023/05/19 08:24:08;;;;;;;5.57;3.10;;;24.10;41.80;;;31.59;23.00;102697.50;5036192;28;20222;-69
2023/05/19 08:26:35;;;;;;;5.10;3.13;;;24.80;40.30;;;32.00;22.81;102698.41;5053796;28;20549;-69
2023/05/19 08:29:04;;;;;;;6.80;3.40;;;25.40;39.10;;;32.52;22.31;102699.03;5049507;28;20202;-68
2023/05/19 08:31:31;;;;;;;5.10;4.50;;;25.90;38.20;;;33.10;21.57;102692.16;5055577;28;20217;-67
2023/05/19 08:33:58;;;;;;;6.23;3.87;;;26.40;37.00;;;33.87;21.28;102696.19;5055221;28;20224;-67
2023/05/19 08:36:27;;;;;;;4.80;3.20;;;26.90;36.10;;;34.62;19.86;102692.09;5056280;28;20190;-68
2023/05/19 08:38:54;;;;;;;5.80;4.40;;;27.30;34.20;;;35.27;19.42;102696.06;5056162;28;20674;-68
2023/05/19 08:41:22;;;;;;;8.47;4.13;;;27.80;34.60;;;35.73;18.77;102697.09;5056337;28;20251;-67
2023/05/19 08:43:49;;;;;;;5.80;4.30;;;28.20;31.80;;;35.97;18.36;102697.84;5055651;28;20236;-67
2023/05/19 08:46:17;;;;;;;5.90;3.27;;;28.60;31.20;;;36.34;18.37;102690.69;5054565;28;20191;-67
2023/05/19 08:48:47;;;;;;;11.00;3.63;;;28.90;30.90;;;36.89;18.49;102683.41;5055381;28;20189;-67
2023/05/19 08:51:30;;;;;;;6.23;4.07;;;29.20;30.60;;;37.55;17.90;102691.13;5055924;28;20667;-68
2023/05/19 08:54:11;;;;;;;5.40;2.93;;;29.60;29.90;;;37.85;16.45;102671.22;5055983;28;20189;-67
2023/05/19 08:56:38;;;;;;;5.50;3.40;;;29.90;28.60;;;38.09;16.50;102676.41;5055943;28;20534;-69
2023/05/19 08:59:06;;;;;;;5.13;3.43;;;30.10;28.80;;;38.31;15.95;102662.66;5055734;28;20553;-69
2023/05/19 09:01:34;;;;;;;5.72;3.40;;;30.40;28.00;;;38.65;15.93;102662.03;5054053;28;20194;-69
2023/05/19 09:04:06;;;;;;;6.00;2.80;;;30.70;27.80;;;38.92;15.59;102667.34;5055470;28;20237;-68
2023/05/19 09:06:34;;;;;;;5.18;2.70;;;30.90;27.10;;;38.89;15.30;102656.97;5055456;28;20193;-68
2023/05/19 09:09:03;;;;;;;4.47;2.60;;;31.20;26.50;;;38.83;15.17;102663.75;5053507;28;20281;-68
2023/05/19 09:11:30;;;;;;;4.75;2.65;;;31.40;26.50;;;39.08;15.29;102655.53;5035211;28;20198;-68
2023/05/19 09:13:57;;;;;;;7.15;2.80;;;31.50;26.40;;;39.24;14.61;102653.19;5036173;28;20273;-68
2023/05/19 09:16:24;;;;;;;4.63;2.50;;;31.60;25.30;;;39.48;14.92;102649.97;5035228;28;20195;-68
2023/05/19 09:18:57;;;;;;;5.40;3.13;;;31.70;25.70;;;39.62;14.34;102648.72;5042354;28;20666;-69
2023/05/19 09:21:31;;;;;;;5.65;2.50;;;31.80;24.80;;;39.38;13.99;102651.09;5054786;28;20245;-68
2023/05/19 09:24:05;;;;;;;4.40;3.00;;;31.90;24.20;;;39.00;14.20;102647.25;5054468;28;20184;-68
2023/05/19 09:26:37;;;;;;;4.35;2.70;;;31.90;24.00;;;38.72;14.71;102646.69;5051257;28;20253;-68
2023/05/19 09:29:10;;;;;;;3.47;2.72;;;32.00;24.40;;;39.07;14.49;102642.09;5035054;28;20186;-68
2023/05/19 09:31:37;;;;;;;4.25;2.40;;;32.00;24.60;;;39.03;14.33;102643.88;5054630;28;20221;-68
2023/05/19 09:34:12;;;;;;;5.97;2.63;;;32.00;24.10;;;38.98;14.29;102644.03;5045207;28;20225;-68
2023/05/19 09:36:40;;;;;;;6.63;2.92;;;32.00;23.80;;;39.01;14.07;102644.19;5052012;28;20200;-67
2023/05/19 09:39:15;;;;;;;5.18;2.30;;;32.00;23.70;;;39.20;14.02;102632.94;5046338;28;20727;-68
2023/05/19 09:41:43;;;;;;;4.30;2.60;;;32.00;23.60;;;39.62;14.06;102636.88;5035883;28;20588;-68
2023/05/19 09:44:22;;;;;;;3.97;2.30;;;32.00;23.50;;;39.94;13.82;102627.25;5039907;28;20261;-68
2023/05/19 09:46:50;;;;;;;5.82;2.90;;;32.20;23.40;;;40.19;12.83;102621.72;5035040;28;20187;-68
2023/05/19 09:49:22;;;;;;;4.32;2.80;;;32.30;23.40;;;40.56;12.55;102622.88;5033007;28;20229;-68
2023/05/19 09:51:52;;;;;;;6.35;5.22;;;32.50;22.80;;;39.68;13.40;102624.50;5035169;28;20214;-68
2023/05/19 09:54:22;;;;;;;4.32;2.72;;;32.50;22.50;;;39.28;13.60;102614.75;5034589;28;20305;-68
2023/05/19 09:57:00;;;;;;;6.82;3.92;;;32.30;22.40;;;39.73;13.16;102619.66;5042077;28;20190;-68
2023/05/19 09:59:28;;;;;;;2.83;2.58;;;32.30;23.00;;;38.99;13.27;102618.06;5034760;28;20194;-68
2023/05/19 10:02:01;;;;;;;7.97;4.90;;;32.00;22.20;;;37.75;14.05;102622.72;5034399;28;20198;-68
2023/05/19 10:04:30;;;;;;;3.78;2.63;;;31.80;22.60;;;37.70;14.32;102616.53;5050229;28;20555;-68
2023/05/19 10:06:58;;;;;;;8.20;5.72;;;31.50;22.40;;;38.09;13.67;102611.16;5051983;28;20201;-68
2023/05/19 10:09:28;;;;;;;5.70;2.90;;;31.40;22.70;;;37.49;13.51;102607.16;5053329;28;20221;-68
2023/05/19 10:11:57;;;;;;;3.47;2.70;;;31.40;22.10;;;36.31;14.80;102603.47;5053280;28;20232;-68
2023/05/19 10:14:27;;;;;;;4.00;2.30;;;31.00;22.30;;;35.45;15.65;102602.09;5050215;28;20316;-68
2023/05/19 10:16:56;;;;;;;4.03;2.17;;;30.60;22.70;;;35.42;15.28;102594.47;5034150;28;20214;-68
2023/05/19 10:19:26;;;;;;;4.15;2.22;;;30.30;23.10;;;34.86;15.84;102583.41;5033521;28;20678;-69
2023/05/19 10:21:55;;;;;;;4.87;2.03;;;30.10;23.30;;;33.78;16.30;102588.56;5034258;28;20191;-67